createdAt,value
2023-02-13T00:04:30.883Z,7.30
2023-02-13T00:09:33.385Z,7.31
2023-02-13T00:14:36.812Z,7.31
2023-02-13T00:19:40.824Z,7.30
2023-02-13T00:24:43.493Z,7.27
2023-02-13T00:29:46.053Z,7.25
2023-02-13T00:34:49.912Z,7.22
2023-02-13T00:39:52.475Z,7.19
2023-02-13T00:44:55.629Z,7.17
2023-02-13T00:49:59.482Z,7.16
2023-02-13T00:55:02.014Z,7.14
2023-02-13T01:00:05.207Z,7.17
2023-02-13T01:05:09.408Z,7.14
2023-02-13T01:10:12.268Z,7.13
2023-02-13T01:15:14.779Z,7.13
2023-02-13T01:20:19.241Z,7.11
2023-02-13T01:25:22.441Z,7.09
2023-02-13T01:30:25.063Z,7.08
2023-02-13T01:35:28.872Z,7.08
2023-02-13T01:40:32.038Z,7.06
2023-02-13T01:45:34.856Z,7.07
2023-02-13T01:50:42.566Z,7.07
2023-02-13T01:55:50.285Z,7.06
2023-02-13T02:00:52.890Z,7.08
2023-02-13T02:06:00.096Z,7.06
2023-02-13T02:11:12.375Z,7.04
2023-02-13T02:16:15.043Z,7.07
2023-02-13T02:21:52.225Z,7.09
2023-02-13T02:27:31.131Z,7.08
2023-02-13T02:32:47.964Z,7.02
2023-02-13T02:38:07.593Z,7.01
2023-02-13T02:43:25.453Z,7.00
2023-02-13T02:48:50.872Z,6.99
2023-02-13T02:54:03.514Z,7.00
2023-02-13T02:59:28.227Z,6.97
2023-02-13T03:04:55.266Z,6.92
2023-02-13T03:10:18.542Z,6.91
2023-02-13T03:15:21.965Z,6.90
2023-02-13T03:20:55.982Z,6.90
2023-02-13T03:26:13.599Z,6.90
2023-02-13T03:31:25.240Z,6.82
2023-02-13T03:36:58.481Z,6.79
2023-02-13T03:42:04.913Z,6.80
2023-02-13T03:47:10.494Z,6.76
2023-02-13T03:52:19.719Z,6.76
2023-02-13T03:57:43.710Z,6.80
2023-02-13T04:02:55.989Z,6.80
2023-02-13T04:07:59.910Z,6.83
2023-02-13T04:13:12.457Z,6.81
2023-02-13T04:18:18.798Z,6.75
2023-02-13T04:23:22.657Z,6.75
2023-02-13T04:28:25.200Z,6.77
2023-02-13T04:33:27.827Z,6.76
2023-02-13T04:38:31.649Z,6.73
2023-02-13T04:43:34.138Z,6.74
2023-02-13T04:48:38.741Z,6.74
2023-02-13T04:53:42.795Z,6.71
2023-02-13T04:58:45.265Z,6.68
2023-02-13T05:03:47.737Z,6.66
2023-02-13T05:08:51.551Z,6.66
2023-02-13T05:13:54.013Z,6.65
2023-02-13T05:18:56.514Z,6.64
2023-02-13T05:24:01.212Z,6.62
2023-02-13T05:29:22.812Z,6.63
2023-02-13T05:34:27.965Z,6.61
2023-02-13T05:39:31.794Z,6.62
2023-02-13T05:44:34.294Z,6.61
2023-02-13T05:49:36.794Z,6.61
2023-02-13T05:54:40.617Z,6.60
2023-02-13T05:59:43.178Z,6.59
2023-02-13T06:04:45.656Z,6.58
2023-02-13T06:09:49.493Z,6.56
2023-02-13T06:14:52.006Z,6.54
2023-02-13T06:19:54.473Z,6.53
2023-02-13T06:24:58.315Z,6.56
2023-02-13T06:30:00.821Z,6.57
2023-02-13T06:35:05.518Z,6.60
2023-02-13T06:40:11.150Z,6.60
2023-02-13T06:45:14.373Z,6.59
2023-02-13T06:50:18.229Z,6.53
2023-02-13T06:55:22.130Z,6.51
2023-02-13T07:00:26.209Z,6.52
2023-02-13T07:05:29.527Z,6.53
2023-02-13T07:10:33.345Z,6.55
2023-02-13T07:15:36.411Z,6.55
2023-02-13T07:20:38.905Z,6.53
2023-02-13T07:25:42.714Z,6.55
2023-02-13T07:30:45.239Z,6.56
2023-02-13T07:35:48.083Z,6.57
2023-02-13T07:40:51.901Z,6.57
2023-02-13T07:45:56.039Z,6.59
2023-02-13T07:51:02.169Z,6.58
2023-02-13T07:56:10.862Z,6.59
2023-02-13T08:01:15.622Z,6.64
2023-02-13T08:06:19.029Z,6.65
2023-02-13T08:11:47.260Z,6.69
2023-02-13T08:16:49.827Z,6.70
2023-02-13T08:21:52.384Z,6.72
2023-02-13T08:26:56.656Z,6.72
2023-02-13T08:31:59.160Z,6.75
2023-02-13T08:37:02.450Z,6.78
2023-02-13T08:42:06.443Z,6.82
2023-02-13T08:47:08.992Z,6.87
2023-02-13T08:52:11.470Z,6.88
2023-02-13T08:57:15.286Z,6.92
2023-02-13T09:02:17.793Z,6.95
2023-02-13T09:07:20.283Z,6.98
2023-02-13T09:12:24.156Z,7.03
2023-02-13T09:17:26.621Z,7.08
2023-02-13T09:22:30.561Z,7.13
2023-02-13T09:27:34.681Z,7.17
2023-02-13T09:32:37.935Z,7.21
2023-02-13T09:37:40.388Z,7.23
2023-02-13T09:42:46.376Z,7.29
2023-02-13T09:47:49.620Z,7.31
2023-02-13T09:52:54.571Z,7.38
2023-02-13T09:58:06.531Z,7.40
2023-02-13T10:03:28.785Z,7.45
2023-02-13T10:08:42.692Z,7.47
2023-02-13T10:14:00.683Z,7.51
2023-02-13T10:19:09.849Z,7.52
2023-02-13T10:24:19.423Z,7.59
2023-02-13T10:29:44.447Z,7.65
2023-02-13T10:34:47.914Z,7.66
2023-02-13T10:39:52.213Z,7.68
2023-02-13T10:45:10.623Z,7.69
2023-02-13T10:50:22.854Z,7.70
2023-02-13T10:55:55.923Z,7.71
2023-02-13T11:01:05.845Z,7.75
2023-02-13T11:06:14.663Z,7.76
2023-02-13T11:11:29.856Z,7.79
2023-02-13T11:16:41.471Z,7.79
2023-02-13T11:21:44.164Z,7.83
2023-02-13T11:26:53.525Z,7.85
2023-02-13T11:32:12.633Z,7.89
2023-02-13T11:37:19.103Z,7.88
2023-02-13T11:42:27.272Z,7.89
2023-02-13T11:47:40.850Z,7.90
2023-02-13T11:52:44.376Z,7.89
2023-02-13T11:57:57.459Z,7.87
2023-02-13T12:03:01.404Z,7.84
2023-02-13T12:08:04.030Z,7.81
2023-02-13T12:13:15.238Z,7.82
2023-02-13T12:18:28.363Z,7.77
2023-02-13T12:23:41.118Z,7.76
2023-02-13T12:29:07.867Z,7.78
2023-02-13T12:34:47.052Z,7.80
2023-02-13T12:40:04.015Z,7.77
2023-02-13T12:45:22.819Z,7.75
2023-02-13T12:50:37.264Z,7.75
2023-02-13T12:55:58.755Z,7.75
2023-02-13T13:01:11.345Z,7.72
2023-02-13T13:06:46.430Z,7.75
2023-02-13T13:12:14.541Z,7.74
2023-02-13T13:17:28.778Z,7.74
2023-02-13T13:22:35.467Z,7.68
2023-02-13T13:27:44.803Z,7.67
2023-02-13T13:32:52.259Z,7.72
2023-02-13T13:38:03.392Z,7.72
2023-02-13T13:43:18.358Z,7.69
2023-02-13T13:48:46.363Z,7.69
2023-02-13T13:54:23.561Z,7.68
2023-02-13T14:00:07.749Z,7.69
2023-02-13T14:05:22.590Z,7.71
2023-02-13T14:11:07.876Z,7.66
2023-02-13T14:16:12.958Z,7.65
2023-02-13T14:21:24.237Z,7.70
2023-02-13T14:26:33.265Z,7.78
2023-02-13T14:31:39.428Z,7.77
2023-02-13T14:36:45.145Z,7.76
2023-02-13T14:41:59.200Z,7.71
2023-02-13T14:47:06.695Z,7.68
2023-02-13T14:52:17.031Z,7.59
2023-02-13T14:57:22.300Z,7.55
2023-02-13T15:02:28.402Z,7.54
2023-02-13T15:07:35.290Z,7.49
2023-02-13T15:12:38.339Z,7.48
2023-02-13T15:17:42.193Z,7.46
2023-02-13T15:22:47.866Z,7.35
2023-02-13T15:27:54.417Z,7.30
2023-02-13T15:32:59.805Z,7.28
2023-02-13T15:38:20.772Z,7.30
2023-02-13T15:43:26.663Z,7.24
2023-02-13T15:48:33.160Z,7.21
2023-02-13T15:53:35.690Z,7.18
2023-02-13T15:58:38.308Z,7.13
2023-02-13T16:03:44.337Z,7.06
2023-02-13T16:08:53.431Z,7.04
2023-02-13T16:14:03.918Z,7.07
2023-02-13T16:19:07.864Z,7.00
2023-02-13T16:24:10.370Z,6.97
2023-02-13T16:29:18.763Z,6.93
2023-02-13T16:34:27.445Z,6.91
2023-02-13T16:39:31.811Z,6.82
2023-02-13T16:44:34.516Z,6.74
2023-02-13T16:49:38.888Z,6.67
2023-02-13T16:54:55.634Z,6.74
2023-02-13T17:00:03.847Z,6.71
2023-02-13T17:05:23.087Z,6.73
2023-02-13T17:10:28.105Z,6.73
2023-02-13T17:15:32.114Z,6.73
2023-02-13T17:20:38.378Z,6.72
2023-02-13T17:25:42.536Z,6.71
2023-02-13T17:30:46.166Z,6.68
2023-02-13T17:35:50.543Z,6.70
2023-02-13T17:40:53.043Z,6.66
2023-02-13T17:45:55.604Z,6.63
2023-02-13T17:50:59.766Z,6.59
2023-02-13T17:56:02.637Z,6.54
2023-02-13T18:01:05.527Z,6.53
2023-02-13T18:06:12.648Z,6.51
2023-02-13T18:11:15.161Z,6.50
2023-02-13T18:16:17.799Z,6.44
2023-02-13T18:21:24.070Z,6.37
2023-02-13T18:26:26.604Z,6.38
2023-02-13T18:31:29.846Z,6.40
2023-02-13T18:36:33.759Z,6.40
2023-02-13T18:41:36.265Z,6.43
2023-02-13T18:46:38.840Z,6.42
2023-02-13T18:51:44.411Z,6.39
2023-02-13T18:56:47.022Z,6.32
2023-02-13T19:01:49.764Z,6.29
2023-02-13T19:06:53.688Z,6.26
2023-02-13T19:11:56.180Z,6.26
2023-02-13T19:16:58.706Z,6.29
2023-02-13T19:22:03.333Z,6.30
2023-02-13T19:27:05.842Z,6.32
2023-02-13T19:32:08.415Z,6.33
2023-02-13T19:37:12.248Z,6.30
2023-02-13T19:42:14.800Z,6.29
2023-02-13T19:47:17.285Z,6.27
2023-02-13T19:52:21.124Z,6.24
2023-02-13T19:57:23.726Z,6.24
2023-02-13T20:02:26.258Z,6.22
2023-02-13T20:07:30.899Z,6.21
2023-02-13T20:12:33.460Z,6.21
2023-02-13T20:17:37.461Z,6.19
2023-02-13T20:22:41.413Z,6.17
2023-02-13T20:27:43.933Z,6.19
2023-02-13T20:32:46.505Z,6.19
2023-02-13T20:37:50.452Z,6.21
2023-02-13T20:42:53.013Z,6.20
2023-02-13T20:47:55.519Z,6.20
2023-02-13T20:52:59.669Z,6.20
2023-02-13T20:58:02.195Z,6.21
2023-02-13T21:03:04.942Z,6.23
2023-02-13T21:08:08.923Z,6.24
2023-02-13T21:13:11.580Z,6.23
2023-02-13T21:18:14.118Z,6.24
2023-02-13T21:23:18.212Z,6.21
2023-02-13T21:28:21.227Z,6.11
2023-02-13T21:33:23.887Z,6.10
2023-02-13T21:38:27.736Z,6.13
2023-02-13T21:43:30.241Z,6.12
2023-02-13T21:48:32.736Z,6.14
2023-02-13T21:53:36.658Z,6.11
2023-02-13T21:58:41.253Z,6.05
2023-02-13T22:03:43.964Z,6.06
2023-02-13T22:08:48.230Z,6.10
2023-02-13T22:13:54.550Z,6.11
2023-02-13T22:18:57.218Z,6.12
2023-02-13T22:24:01.135Z,6.11
2023-02-13T22:29:05.704Z,6.13
2023-02-13T22:34:08.805Z,6.16
2023-02-13T22:39:13.611Z,6.18
2023-02-13T22:44:16.159Z,6.17
2023-02-13T22:49:18.664Z,6.14
2023-02-13T22:54:22.502Z,6.14
2023-02-13T22:59:25.045Z,6.09
2023-02-13T23:04:27.586Z,6.06
2023-02-13T23:09:31.440Z,6.02
2023-02-13T23:14:34.011Z,5.99
2023-02-13T23:19:36.960Z,5.99
2023-02-13T23:24:41.006Z,6.02
2023-02-13T23:29:43.527Z,6.04
2023-02-13T23:34:46.222Z,6.06
2023-02-13T23:39:50.075Z,6.03
2023-02-13T23:44:52.616Z,6.02
2023-02-13T23:49:55.112Z,5.99
2023-02-13T23:54:58.959Z,5.99
